Time;durP1;ratioP1;P1;durP2;ratioP2;P2;SDS_P1;SDS_P2;PMS_P1;PMS_P2;Temp;Humidity;BMP_temperature;BMP_pressure;BME280_temperature;BME280_humidity;BME280_pressure;Samples;Min_cycle;Max_cycle;Signal;HPM_P1;HPM_P2
2020/12/14 00:02:05;;;;;;;5.38;0.88;;;7.10;99.90;;;;;;5026324;28;20028;-67
2020/12/14 00:04:31;;;;;;;7.10;0.88;;;7.10;99.90;;;;;;5020815;28;20033;-66
2020/12/14 00:06:56;;;;;;;5.15;1.10;;;7.20;99.90;;;;;;5022014;28;20041;-65
2020/12/14 00:09:23;;;;;;;4.35;0.70;;;7.20;99.90;;;;;;5023769;28;20080;-66
2020/12/14 00:11:52;;;;;;;19.85;3.05;;;7.20;99.90;;;;;;5020083;28;20125;-67
2020/12/14 00:14:17;;;;;;;9.75;1.23;;;7.30;99.90;;;;;;5021555;28;20034;-67
2020/12/14 00:16:43;;;;;;;3.22;0.68;;;7.30;99.90;;;;;;5023105;28;20049;-67
2020/12/14 00:19:09;;;;;;;10.80;3.00;;;7.30;99.90;;;;;;5025185;28;20037;-67
2020/12/14 00:21:35;;;;;;;5.22;0.63;;;7.30;99.90;;;;;;5021693;28;20037;-66
2020/12/14 00:24:00;;;;;;;4.50;1.15;;;7.40;99.90;;;;;;5023775;28;20033;-66
2020/12/14 00:26:26;;;;;;;4.22;0.80;;;7.40;99.90;;;;;;5025690;28;20524;-68
2020/12/14 00:28:52;;;;;;;5.93;1.30;;;7.40;99.90;;;;;;5022483;28;20398;-66
2020/12/14 00:31:18;;;;;;;7.95;1.15;;;7.40;99.90;;;;;;5025314;28;20022;-66
2020/12/14 00:33:44;;;;;;;2.38;0.80;;;7.40;99.90;;;;;;5022362;28;20037;-66
2020/12/14 00:36:11;;;;;;;5.40;0.73;;;7.40;99.90;;;;;;5024132;28;20048;-68
2020/12/14 00:38:37;;;;;;;11.05;1.15;;;7.50;99.90;;;;;;5021389;28;20029;-68
2020/12/14 00:41:03;;;;;;;4.38;0.70;;;7.50;99.90;;;;;;5021003;28;20041;-66
2020/12/14 00:43:29;;;;;;;4.68;0.60;;;7.50;99.90;;;;;;5023213;28;20030;-66
2020/12/14 00:45:55;;;;;;;3.97;0.50;;;7.50;99.90;;;;;;5018122;28;20509;-68
2020/12/14 00:48:20;;;;;;;8.98;1.08;;;7.50;99.90;;;;;;5021884;28;20048;-66
2020/12/14 00:50:46;;;;;;;5.00;0.50;;;7.50;99.90;;;;;;5023069;28;20116;-67
2020/12/14 00:53:12;;;;;;;6.30;0.95;;;7.50;99.90;;;;;;5025054;28;20447;-67
2020/12/14 00:55:38;;;;;;;4.80;0.60;;;7.50;99.90;;;;;;5019987;28;20038;-66
2020/12/14 00:58:04;;;;;;;2.95;0.82;;;7.50;99.90;;;;;;5021363;28;20033;-67
2020/12/14 01:00:30;;;;;;;4.55;0.73;;;7.50;99.90;;;;;;5022674;28;20083;-67
2020/12/14 01:02:55;;;;;;;5.43;1.27;;;7.50;99.90;;;;;;5017967;28;20034;-67
2020/12/14 01:05:21;;;;;;;2.58;0.60;;;7.60;99.90;;;;;;5021522;28;20038;-66
2020/12/14 01:07:46;;;;;;;6.55;0.70;;;7.60;99.90;;;;;;5018478;28;20526;-67
2020/12/14 01:10:12;;;;;;;7.28;0.77;;;7.60;99.90;;;;;;5021594;28;20029;-66
2020/12/14 01:12:37;;;;;;;3.13;0.50;;;7.60;99.90;;;;;;5018370;28;20029;-67
2020/12/14 01:15:05;;;;;;;3.92;0.55;;;7.60;99.90;;;;;;5020005;28;20057;-66
2020/12/14 01:17:31;;;;;;;3.75;0.70;;;7.70;99.90;;;;;;5022028;28;20033;-67
2020/12/14 01:19:56;;;;;;;4.72;0.82;;;7.70;99.90;;;;;;5020914;28;20033;-66
2020/12/14 01:22:22;;;;;;;5.45;0.70;;;7.70;99.90;;;;;;5017488;28;20044;-66
2020/12/14 01:24:47;;;;;;;6.88;0.90;;;7.70;99.90;;;;;;5023967;28;20068;-69
2020/12/14 01:27:13;;;;;;;5.65;0.63;;;7.70;99.90;;;;;;5019697;28;20048;-67
2020/12/14 01:29:38;;;;;;;1.20;0.50;;;7.70;99.90;;;;;;5050243;28;20049;-67
2020/12/14 01:32:04;;;;;;;6.13;1.00;;;7.70;99.90;;;;;;5021454;28;20041;-68
2020/12/14 01:34:29;;;;;;;3.90;0.47;;;7.80;99.90;;;;;;5018388;28;20044;-67
2020/12/14 01:36:55;;;;;;;3.72;0.57;;;7.80;99.90;;;;;;5019604;28;20037;-66
2020/12/14 01:39:20;;;;;;;5.10;0.65;;;7.80;99.90;;;;;;5018755;28;20038;-68
2020/12/14 01:41:46;;;;;;;11.95;1.10;;;7.80;99.90;;;;;;5021468;28;20038;-68
2020/12/14 01:44:12;;;;;;;1.92;0.40;;;7.80;99.90;;;;;;5017022;28;20482;-67
2020/12/14 01:46:42;;;;;;;2.63;0.50;;;7.80;99.90;;;;;;5020346;28;20041;-68
2020/12/14 01:49:08;;;;;;;1.13;0.65;;;7.90;99.90;;;;;;5018961;28;20034;-66
2020/12/14 01:51:35;;;;;;;2.33;0.70;;;7.90;99.90;;;;;;5020786;28;20045;-67
2020/12/14 01:54:08;;;;;;;4.25;0.60;;;7.90;99.90;;;;;;5018565;28;20041;-66
2020/12/14 01:56:34;;;;;;;4.32;0.80;;;7.90;99.90;;;;;;5020874;28;20088;-66
2020/12/14 01:58:59;;;;;;;3.17;0.85;;;8.00;99.90;;;;;;5018488;28;20033;-66
2020/12/14 02:01:25;;;;;;;4.25;0.70;;;8.00;99.90;;;;;;5018214;28;20074;-67
2020/12/14 02:03:50;;;;;;;2.15;0.68;;;7.90;99.90;;;;;;5019206;28;20045;-66
2020/12/14 02:06:16;;;;;;;4.90;0.65;;;8.00;99.90;;;;;;5018509;28;20101;-66
2020/12/14 02:08:42;;;;;;;1.92;0.60;;;8.00;99.90;;;;;;5020777;28;20359;-67
2020/12/14 02:11:07;;;;;;;3.70;0.70;;;7.90;99.90;;;;;;5016810;28;20091;-66
2020/12/14 02:13:33;;;;;;;1.58;0.50;;;7.90;99.90;;;;;;5020131;28;20041;-67
2020/12/14 02:15:59;;;;;;;4.32;0.38;;;7.90;99.90;;;;;;5021428;28;20542;-66
2020/12/14 02:18:24;;;;;;;3.80;0.50;;;7.90;99.90;;;;;;5019630;28;20052;-67
2020/12/14 02:20:50;;;;;;;1.00;0.50;;;8.00;99.90;;;;;;5017723;28;20099;-66
2020/12/14 02:23:16;;;;;;;2.00;0.80;;;8.00;99.90;;;;;;5021129;28;20444;-67
2020/12/14 02:25:41;;;;;;;1.95;0.47;;;8.00;99.90;;;;;;5017043;28;20030;-66
2020/12/14 02:28:07;;;;;;;2.10;0.63;;;8.00;99.90;;;;;;5021028;28;20078;-68
2020/12/14 02:30:32;;;;;;;3.88;0.93;;;8.00;99.90;;;;;;5017923;28;20232;-66
2020/12/14 02:32:58;;;;;;;4.22;0.80;;;8.00;99.90;;;;;;5019690;28;20030;-67
2020/12/14 02:35:23;;;;;;;4.03;2.05;;;8.00;99.90;;;;;;5018029;28;20063;-67
2020/12/14 02:37:49;;;;;;;1.38;0.60;;;8.00;99.90;;;;;;5017702;28;20037;-67
2020/12/14 02:40:15;;;;;;;2.50;0.73;;;8.00;99.90;;;;;;5020428;28;20041;-67
2020/12/14 02:42:40;;;;;;;10.88;1.42;;;8.00;99.90;;;;;;5017224;28;20034;-66
2020/12/14 02:45:06;;;;;;;3.08;1.08;;;8.00;99.90;;;;;;5020508;28;20501;-66
2020/12/14 02:47:32;;;;;;;3.17;0.55;;;8.00;99.90;;;;;;5016431;28;20040;-66
2020/12/14 02:49:57;;;;;;;1.50;0.47;;;8.00;99.90;;;;;;5019366;28;20032;-68
2020/12/14 02:52:23;;;;;;;4.22;0.73;;;8.10;99.90;;;;;;5018152;28;20651;-67
2020/12/14 02:54:49;;;;;;;3.30;0.75;;;8.00;99.90;;;;;;5017368;28;20064;-66
2020/12/14 02:57:14;;;;;;;1.92;0.60;;;7.90;99.90;;;;;;5020461;28;20025;-66
2020/12/14 02:59:40;;;;;;;2.83;0.60;;;7.90;99.90;;;;;;5016781;28;20724;-66
2020/12/14 03:02:06;;;;;;;4.72;0.98;;;7.80;99.90;;;;;;5020394;28;20033;-67
2020/12/14 03:04:32;;;;;;;3.47;0.80;;;7.80;99.90;;;;;;5017288;28;20042;-66
2020/12/14 03:06:58;;;;;;;2.42;0.90;;;7.70;99.90;;;;;;5020918;28;20564;-66
2020/12/14 03:09:24;;;;;;;2.75;0.77;;;7.70;99.90;;;;;;5019091;28;20038;-66
2020/12/14 03:11:50;;;;;;;2.40;0.82;;;7.70;99.90;;;;;;5019452;28;20025;-67
2020/12/14 03:14:16;;;;;;;7.85;0.90;;;7.70;99.90;;;;;;5016884;28;20464;-67
2020/12/14 03:16:44;;;;;;;2.00;0.90;;;7.70;99.90;;;;;;5018384;28;20029;-67
2020/12/14 03:19:10;;;;;;;4.07;1.35;;;7.60;99.90;;;;;;5017331;28;20034;-66
2020/12/14 03:21:35;;;;;;;4.28;1.00;;;7.60;99.90;;;;;;5018463;28;20037;-70
2020/12/14 03:24:01;;;;;;;5.05;1.13;;;7.60;99.90;;;;;;5016304;28;20568;-66
2020/12/14 03:26:27;;;;;;;9.02;2.55;;;7.60;99.90;;;;;;5019341;28;20510;-66
2020/12/14 03:28:53;;;;;;;9.95;2.25;;;7.60;99.90;;;;;;5018245;28;20108;-67
2020/12/14 03:31:19;;;;;;;4.70;1.27;;;7.50;99.90;;;;;;5018528;28;20108;-66
2020/12/14 03:33:45;;;;;;;3.78;1.38;;;7.50;99.90;;;;;;5023195;28;20098;-66
2020/12/14 03:36:10;;;;;;;4.07;1.90;;;7.50;99.90;;;;;;5019349;28;20561;-66
2020/12/14 03:38:37;;;;;;;2.90;1.20;;;7.50;99.90;;;;;;5022366;28;20037;-66
2020/12/14 03:41:06;;;;;;;4.80;1.50;;;7.50;99.90;;;;;;5020389;28;20491;-66
2020/12/14 03:43:32;;;;;;;3.22;1.45;;;7.60;99.90;;;;;;5022138;28;20099;-67
2020/12/14 03:45:58;;;;;;;4.05;1.25;;;7.60;99.90;;;;;;5020419;28;20123;-66
2020/12/14 03:48:24;;;;;;;5.35;1.30;;;7.60;99.90;;;;;;5022469;28;20030;-66
2020/12/14 03:50:50;;;;;;;6.90;1.58;;;7.60;99.90;;;;;;5021670;28;20029;-66
2020/12/14 03:53:16;;;;;;;6.28;1.40;;;7.60;99.90;;;;;;5021210;28;20030;-67
2020/12/14 03:55:42;;;;;;;2.17;1.42;;;7.60;99.90;;;;;;5022590;28;20038;-70
2020/12/14 03:58:08;;;;;;;3.90;1.40;;;7.60;99.90;;;;;;5020271;28;20112;-65
2020/12/14 04:00:34;;;;;;;5.45;1.63;;;7.60;99.90;;;;;;5021963;28;20071;-67
2020/12/14 04:03:03;;;;;;;6.13;1.40;;;7.60;99.90;;;;;;5020758;28;20034;-66
2020/12/14 04:05:29;;;;;;;3.30;1.60;;;7.60;99.90;;;;;;5021026;28;20564;-66
2020/12/14 04:07:55;;;;;;;8.93;3.60;;;7.60;99.90;;;;;;5019625;28;20372;-66
2020/12/14 04:10:20;;;;;;;8.40;2.00;;;7.70;99.90;;;;;;5019858;28;20403;-68
2020/12/14 04:12:46;;;;;;;3.80;1.77;;;7.70;99.90;;;;;;5021660;28;20044;-66
2020/12/14 04:15:11;;;;;;;4.60;1.90;;;7.70;99.90;;;;;;5020256;28;20517;-66
2020/12/14 04:17:37;;;;;;;4.18;1.73;;;7.80;99.90;;;;;;5022624;28;20049;-68
2020/12/14 04:20:03;;;;;;;5.28;2.22;;;7.80;99.90;;;;;;5019818;28;20062;-67
2020/12/14 04:22:28;;;;;;;5.63;1.73;;;7.80;99.90;;;;;;5022158;28;20029;-65
2020/12/14 04:24:54;;;;;;;5.90;1.90;;;7.80;99.90;;;;;;5021200;28;20056;-66
2020/12/14 04:27:19;;;;;;;2.92;1.40;;;7.80;99.90;;;;;;5021287;28;20111;-67
2020/12/14 04:29:45;;;;;;;6.18;2.00;;;7.90;99.90;;;;;;5021070;28;20030;-66
2020/12/14 04:32:10;;;;;;;6.72;2.25;;;7.90;99.90;;;;;;5019787;28;20058;-65
2020/12/14 04:34:36;;;;;;;6.40;1.80;;;7.90;99.90;;;;;;5020762;28;20030;-69
2020/12/14 04:37:02;;;;;;;5.80;1.83;;;7.80;99.90;;;;;;5019305;28;20037;-66
2020/12/14 04:39:27;;;;;;;4.30;1.70;;;7.80;99.90;;;;;;5021963;28;20481;-66
2020/12/14 04:41:57;;;;;;;3.85;1.70;;;7.90;99.90;;;;;;5020302;28;20044;-66
2020/12/14 04:44:23;;;;;;;5.00;1.60;;;7.90;99.90;;;;;;5021764;28;20048;-67
2020/12/14 04:46:49;;;;;;;11.25;2.03;;;7.90;99.90;;;;;;5032724;23;20046;-60
2020/12/14 04:49:16;;;;;;;3.03;1.88;;;7.90;99.90;;;;;;5018343;28;20033;-59
2020/12/14 04:51:42;;;;;;;5.25;1.40;;;7.90;99.90;;;;;;5018747;28;20049;-61
2020/12/14 04:54:07;;;;;;;3.05;1.50;;;7.90;99.90;;;;;;5022245;28;20034;-60
2020/12/14 04:56:41;;;;;;;2.92;1.85;;;7.90;99.90;;;;;;5021415;28;20103;-59
2020/12/14 04:59:10;;;;;;;11.38;2.13;;;7.90;99.90;;;;;;5015629;28;20444;-60
2020/12/14 05:01:36;;;;;;;3.58;1.80;;;7.90;99.90;;;;;;5018047;28;20037;-60
2020/12/14 05:04:02;;;;;;;6.07;2.40;;;7.90;99.90;;;;;;5020520;28;20036;-60
2020/12/14 05:06:27;;;;;;;6.45;2.00;;;7.90;99.90;;;;;;5018530;28;20117;-60
2020/12/14 05:08:53;;;;;;;3.45;1.63;;;8.00;99.90;;;;;;5018944;28;20153;-61
2020/12/14 05:11:34;;;;;;;4.57;1.70;;;8.00;99.90;;;;;;5020308;28;20083;-59
2020/12/14 05:14:17;;;;;;;4.80;2.03;;;8.00;99.90;;;;;;5019675;28;20040;-60
2020/12/14 05:16:43;;;;;;;7.00;2.30;;;8.00;99.90;;;;;;5016661;28;20041;-59
2020/12/14 05:19:28;;;;;;;5.20;1.98;;;8.10;99.90;;;;;;5020894;28;20037;-60
2020/12/14 05:22:01;;;;;;;3.03;1.67;;;8.00;99.90;;;;;;5019229;28;20118;-60
2020/12/14 05:24:30;;;;;;;4.65;2.00;;;8.10;99.90;;;;;;5018357;28;20041;-61
2020/12/14 05:27:00;;;;;;;5.95;1.80;;;8.10;99.90;;;;;;5020615;28;20041;-59
2020/12/14 05:29:28;;;;;;;2.90;1.73;;;8.10;99.90;;;;;;5021477;28;20120;-60
2020/12/14 05:32:04;;;;;;;3.45;1.70;;;8.10;99.90;;;;;;5014224;28;20044;-60
2020/12/14 05:34:32;;;;;;;7.35;2.72;;;8.20;99.90;;;;;;5014136;28;20119;-60
2020/12/14 05:37:00;;;;;;;4.55;2.38;;;8.10;99.90;;;;;;5021075;28;20045;-60
2020/12/14 05:39:29;;;;;;;6.47;1.85;;;8.20;99.90;;;;;;5019869;28;20398;-59
2020/12/14 05:42:08;;;;;;;6.75;2.03;;;8.20;99.90;;;;;;5018342;28;20121;-59
2020/12/14 05:44:34;;;;;;;4.28;2.03;;;8.20;99.90;;;;;;5013411;28;20049;-61
2020/12/14 05:47:00;;;;;;;4.78;2.28;;;8.20;99.90;;;;;;5020941;28;20082;-60
2020/12/14 05:49:26;;;;;;;3.63;1.98;;;8.20;99.90;;;;;;5018527;28;20117;-60
2020/12/14 05:52:01;;;;;;;3.55;2.10;;;8.30;99.90;;;;;;5020735;28;20508;-60
2020/12/14 05:54:36;;;;;;;4.65;2.65;;;8.30;99.90;;;;;;5012565;28;20566;-61
2020/12/14 05:57:05;;;;;;;5.50;2.60;;;8.30;99.90;;;;;;5009319;28;20620;-61
2020/12/14 05:59:36;;;;;;;8.10;2.42;;;8.30;99.90;;;;;;5012188;28;20041;-61
2020/12/14 06:02:05;;;;;;;3.92;2.28;;;8.30;99.90;;;;;;5012015;28;20094;-60
2020/12/14 06:04:33;;;;;;;6.18;2.20;;;8.40;99.90;;;;;;5012178;28;20049;-60
2020/12/14 06:07:09;;;;;;;4.05;2.13;;;8.40;99.90;;;;;;5023570;28;20049;-60
2020/12/14 06:09:39;;;;;;;3.55;2.05;;;8.40;99.90;;;;;;5017682;28;20050;-60
2020/12/14 06:12:05;;;;;;;5.47;2.13;;;8.50;99.90;;;;;;5020074;28;20036;-60
2020/12/14 06:14:40;;;;;;;2.50;1.65;;;8.50;99.90;;;;;;5025780;28;20033;-60
2020/12/14 06:17:10;;;;;;;3.22;2.10;;;8.50;99.90;;;;;;5019523;28;20029;-60
2020/12/14 06:19:36;;;;;;;;;;;8.50;99.90;;;;;;5022532;28;20117;-61
2020/12/14 06:22:04;;;;;;;3.90;2.30;;;8.50;99.90;;;;;;5025820;28;20004;-60
2020/12/14 06:24:32;;;;;;;4.07;2.08;;;8.50;99.90;;;;;;5018889;28;20033;-60
2020/12/14 06:26:59;;;;;;;2.85;1.95;;;8.50;99.90;;;;;;5020139;28;20044;-64
2020/12/14 06:29:34;;;;;;;4.10;2.10;;;8.50;99.90;;;;;;5026137;28;20037;-60
2020/12/14 06:32:00;;;;;;;3.25;2.30;;;8.60;99.90;;;;;;5019082;28;20046;-60
2020/12/14 06:34:32;;;;;;;10.73;2.80;;;8.60;99.90;;;;;;5022318;28;20045;-60
2020/12/14 06:36:58;;;;;;;5.47;2.58;;;8.60;99.90;;;;;;5021650;28;20037;-60
2020/12/14 06:39:29;;;;;;;4.82;2.60;;;8.60;99.90;;;;;;5023429;28;20080;-60
2020/12/14 06:42:09;;;;;;;4.72;2.33;;;8.70;99.90;;;;;;5024147;28;20029;-60
2020/12/14 06:44:35;;;;;;;;;;;8.70;99.90;;;;;;5019013;28;20041;-59
2020/12/14 06:47:14;;;;;;;7.95;2.40;;;8.70;99.90;;;;;;5025039;28;20472;-60
2020/12/14 06:49:40;;;;;;;5.97;2.65;;;8.70;99.90;;;;;;5023387;28;20038;-61
2020/12/14 06:52:06;;;;;;;7.00;2.38;;;8.80;99.90;;;;;;5024573;28;20632;-60
2020/12/14 06:54:46;;;;;;;6.70;2.53;;;8.80;99.90;;;;;;5023540;28;20053;-61
2020/12/14 06:57:17;;;;;;;5.47;2.85;;;8.80;99.90;;;;;;5022612;28;20079;-60
2020/12/14 06:59:50;;;;;;;7.40;2.97;;;8.80;99.90;;;;;;5023197;28;20041;-59
2020/12/14 07:02:16;;;;;;;6.35;2.60;;;8.80;99.90;;;;;;5023657;28;20038;-60
2020/12/14 07:04:43;;;;;;;10.25;3.08;;;8.80;99.90;;;;;;5025154;28;20034;-60
2020/12/14 07:07:11;;;;;;;4.43;2.50;;;8.80;99.90;;;;;;5023899;28;20037;-60
2020/12/14 07:09:38;;;;;;;4.97;2.80;;;8.80;99.90;;;;;;5025219;28;20042;-60
2020/12/14 07:12:10;;;;;;;4.47;2.80;;;8.90;99.90;;;;;;5025141;28;20120;-59
2020/12/14 07:14:53;;;;;;;6.88;3.45;;;8.90;99.90;;;;;;5026498;28;20044;-64
2020/12/14 07:17:23;;;;;;;5.50;2.60;;;8.90;99.90;;;;;;5019677;28;20041;-59
2020/12/14 07:19:50;;;;;;;7.45;3.38;;;9.00;99.90;;;;;;5025509;28;20045;-60
2020/12/14 07:22:22;;;;;;;7.10;3.40;;;9.00;99.90;;;;;;5021895;28;20034;-61
2020/12/14 07:25:04;;;;;;;6.53;3.53;;;9.00;99.90;;;;;;5021753;28;20041;-61
2020/12/14 07:27:31;;;;;;;9.05;4.03;;;9.00;99.90;;;;;;5021128;28;20029;-60
2020/12/14 07:30:05;;;;;;;4.63;2.90;;;9.00;99.90;;;;;;5023116;28;20034;-59
2020/12/14 07:32:31;;;;;;;6.35;2.97;;;9.00;99.90;;;;;;5019518;28;20056;-61
2020/12/14 07:34:57;;;;;;;6.30;3.00;;;9.00;99.90;;;;;;5024157;28;20026;-61
2020/12/14 07:37:23;;;;;;;4.53;2.45;;;9.10;99.90;;;;;;5014035;28;20141;-60
2020/12/14 07:39:50;;;;;;;5.22;3.03;;;9.10;99.90;;;;;;5025289;28;20033;-60
2020/12/14 07:42:26;;;;;;;4.35;2.55;;;9.20;99.90;;;;;;5023580;28;20042;-60
2020/12/14 07:45:17;;;;;;;4.85;2.58;;;9.20;99.90;;;;;;5017621;28;20037;-59
2020/12/14 07:47:43;;;;;;;;;;;9.20;99.90;;;;;;5023328;28;20050;-61
2020/12/14 07:50:20;;;;;;;5.03;2.80;;;9.20;99.90;;;;;;5024003;28;20293;-61
2020/12/14 07:52:46;;;;;;;5.18;2.65;;;9.20;99.90;;;;;;5024852;28;20124;-61
2020/12/14 07:55:14;;;;;;;5.60;2.85;;;9.20;99.90;;;;;;5022440;28;20121;-59
2020/12/14 07:57:41;;;;;;;6.60;3.15;;;9.30;99.90;;;;;;5022328;28;20081;-59
2020/12/14 08:00:15;;;;;;;5.70;2.60;;;9.30;99.90;;;;;;5022240;28;20041;-60
2020/12/14 08:02:44;;;;;;;7.40;2.92;;;9.30;99.90;;;;;;5015751;28;20033;-60
2020/12/14 08:05:16;;;;;;;6.13;2.63;;;9.40;99.90;;;;;;5013112;28;20495;-59
2020/12/14 08:07:49;;;;;;;7.28;2.83;;;9.40;99.90;;;;;;5021658;28;20057;-60
2020/12/14 08:10:15;;;;;;;5.68;2.65;;;9.50;99.90;;;;;;5023073;28;20088;-59
2020/12/14 08:12:42;;;;;;;7.18;2.45;;;9.50;99.90;;;;;;5024324;28;20017;-59
2020/12/14 08:15:17;;;;;;;5.57;2.83;;;9.50;99.90;;;;;;5022382;28;20116;-61
2020/12/14 08:17:44;;;;;;;4.45;2.50;;;9.50;99.90;;;;;;5024307;28;20049;-60
2020/12/14 08:20:30;;;;;;;5.25;2.20;;;9.50;99.90;;;;;;5022638;28;20502;-59
2020/12/14 08:22:56;;;;;;;3.72;2.58;;;9.60;99.90;;;;;;5019356;28;20022;-60
2020/12/14 08:28:45;;;;;;;7.47;2.90;;;9.60;99.90;;;;;;5015281;28;20072;-60
2020/12/14 08:31:11;;;;;;;5.25;2.55;;;9.60;99.90;;;;;;5013844;28;20048;-61
2020/12/14 08:33:54;;;;;;;4.43;2.20;;;9.70;99.90;;;;;;5015959;28;20061;-60
2020/12/14 08:36:20;;;;;;;4.13;2.35;;;9.70;99.90;;;;;;5018064;28;20172;-63
2020/12/14 08:38:46;;;;;;;7.88;2.65;;;9.70;99.90;;;;;;5017168;28;20029;-60
2020/12/14 08:41:22;;;;;;;7.68;2.47;;;9.70;99.90;;;;;;5017928;28;20033;-61
2020/12/14 08:43:48;;;;;;;3.85;2.53;;;9.80;99.90;;;;;;5017347;28;20109;-59
2020/12/14 08:46:17;;;;;;;4.15;2.00;;;9.90;99.90;;;;;;5015232;28;20045;-62
2020/12/14 08:48:44;;;;;;;7.75;3.22;;;9.90;99.90;;;;;;5020224;28;20014;-61
2020/12/14 08:51:16;;;;;;;5.43;2.30;;;9.90;99.90;;;;;;5018807;28;20088;-61
2020/12/14 08:53:44;;;;;;;3.97;2.00;;;10.00;99.90;;;;;;5015333;28;20053;-59
2020/12/14 08:56:12;;;;;;;6.15;2.67;;;10.00;99.90;;;;;;5020154;28;20026;-59
2020/12/14 08:58:55;;;;;;;3.83;2.38;;;9.90;99.90;;;;;;5014049;28;20064;-60
2020/12/14 09:01:24;;;;;;;5.25;2.88;;;10.00;99.90;;;;;;5013196;28;20041;-61
2020/12/14 09:03:57;;;;;;;4.28;2.10;;;10.00;99.90;;;;;;5011371;28;20088;-59
2020/12/14 09:06:25;;;;;;;7.50;2.00;;;10.10;99.90;;;;;;5012651;28;20037;-61
2020/12/14 09:09:05;;;;;;;4.90;2.08;;;10.10;99.90;;;;;;5015388;28;20032;-60
2020/12/14 09:11:33;;;;;;;3.03;1.80;;;10.20;99.90;;;;;;5017212;28;20037;-61
2020/12/14 09:13:59;;;;;;;8.75;2.63;;;10.20;99.90;;;;;;5016432;28;20100;-60
2020/12/14 09:16:26;;;;;;;2.72;1.85;;;10.30;99.90;;;;;;5017415;28;20044;-59
2020/12/14 09:18:51;;;;;;;6.82;2.22;;;10.30;99.90;;;;;;5018338;28;20571;-59
2020/12/14 09:21:18;;;;;;;4.00;2.20;;;10.30;99.90;;;;;;5014462;28;20030;-59
2020/12/14 09:23:45;;;;;;;5.78;2.47;;;10.30;99.90;;;;;;5014496;28;20112;-60
2020/12/14 09:26:11;;;;;;;3.60;1.83;;;10.30;99.90;;;;;;5009479;28;20038;-61
2020/12/14 09:28:37;;;;;;;3.83;1.70;;;10.30;99.90;;;;;;5011539;28;20088;-61
2020/12/14 09:31:09;;;;;;;3.92;1.65;;;10.40;99.90;;;;;;5007685;28;20034;-60
2020/12/14 09:33:35;;;;;;;3.17;1.70;;;10.40;99.90;;;;;;5008472;28;20061;-59
2020/12/14 09:36:01;;;;;;;2.72;1.63;;;10.50;99.90;;;;;;5011775;28;20070;-61
2020/12/14 09:38:26;;;;;;;4.82;1.90;;;10.50;99.90;;;;;;5010025;28;20120;-59
2020/12/14 09:40:55;;;;;;;4.00;1.63;;;10.50;99.90;;;;;;5011515;28;20149;-60
2020/12/14 09:43:21;;;;;;;3.10;1.92;;;10.50;99.90;;;;;;5011756;28;20056;-59
2020/12/14 09:45:51;;;;;;;2.45;1.42;;;10.50;99.90;;;;;;5009262;28;20498;-59
2020/12/14 09:48:18;;;;;;;5.78;1.70;;;10.60;99.90;;;;;;5009837;28;20039;-58
2020/12/14 09:50:44;;;;;;;3.20;1.77;;;10.60;99.90;;;;;;5010141;28;20037;-60
2020/12/14 09:53:09;;;;;;;3.47;1.60;;;10.50;99.90;;;;;;5009733;28;20030;-59
2020/12/14 09:55:35;;;;;;;2.70;1.25;;;10.60;99.90;;;;;;5009493;28;20030;-60
2020/12/14 09:58:00;;;;;;;2.72;1.50;;;10.60;99.90;;;;;;5009979;28;20065;-63
2020/12/14 10:00:26;;;;;;;4.10;1.42;;;10.70;99.90;;;;;;5009458;28;20130;-60
2020/12/14 10:02:51;;;;;;;3.90;1.48;;;10.70;99.90;;;;;;5009418;28;20088;-58
2020/12/14 10:05:17;;;;;;;4.13;1.42;;;10.70;99.90;;;;;;5009131;28;20041;-60
2020/12/14 10:07:43;;;;;;;3.25;1.80;;;10.70;99.90;;;;;;5006926;28;20030;-60
2020/12/14 10:10:09;;;;;;;7.10;1.75;;;10.80;99.90;;;;;;5009149;28;20125;-59
2020/12/14 10:12:35;;;;;;;4.15;1.35;;;10.70;99.90;;;;;;5008819;28;20056;-59
2020/12/14 10:15:00;;;;;;;4.95;1.33;;;10.80;99.90;;;;;;5010111;28;20037;-58
2020/12/14 10:17:26;;;;;;;2.88;1.52;;;10.80;99.90;;;;;;5011695;28;20127;-62
2020/12/14 10:19:54;;;;;;;5.80;1.40;;;10.80;99.90;;;;;;5010265;28;20038;-58
2020/12/14 10:22:19;;;;;;;6.53;1.67;;;10.80;99.90;;;;;;5009211;28;20025;-63
2020/12/14 10:24:45;;;;;;;3.38;1.33;;;10.80;99.90;;;;;;5005357;28;20084;-59
2020/12/14 10:27:11;;;;;;;2.85;1.40;;;10.90;99.90;;;;;;5009055;28;20061;-59
2020/12/14 10:29:37;;;;;;;2.03;1.02;;;10.90;99.90;;;;;;5010325;28;20026;-59
2020/12/14 10:32:03;;;;;;;2.60;1.27;;;10.90;99.90;;;;;;5009094;28;20069;-62
2020/12/14 10:34:30;;;;;;;2.13;1.27;;;11.00;99.90;;;;;;5009302;28;20038;-58
2020/12/14 10:36:56;;;;;;;4.18;1.77;;;11.10;99.90;;;;;;5008208;28;20073;-61
2020/12/14 10:39:21;;;;;;;2.20;1.30;;;11.10;99.90;;;;;;5007178;28;20065;-60
2020/12/14 10:41:47;;;;;;;3.92;1.40;;;11.10;99.90;;;;;;5005770;28;20030;-59
2020/12/14 10:44:12;;;;;;;5.20;1.27;;;11.10;99.90;;;;;;5011118;28;20045;-62
2020/12/14 10:46:38;;;;;;;2.45;1.13;;;11.20;99.90;;;;;;5011956;28;20068;-59
2020/12/14 10:49:03;;;;;;;2.42;1.30;;;11.20;99.90;;;;;;5011382;28;20041;-59
2020/12/14 10:51:29;;;;;;;2.50;1.10;;;11.20;99.90;;;;;;5010164;28;20137;-60
2020/12/14 10:53:54;;;;;;;1.50;1.08;;;11.20;99.90;;;;;;5010539;28;20095;-58
2020/12/14 10:56:20;;;;;;;1.70;1.25;;;11.20;99.90;;;;;;5009685;28;20096;-58
2020/12/14 10:58:46;;;;;;;3.17;1.00;;;11.20;99.90;;;;;;5007498;28;20041;-60
2020/12/14 11:01:12;;;;;;;2.70;1.27;;;11.30;99.90;;;;;;5013398;28;20087;-62
2020/12/14 11:03:37;;;;;;;2.58;1.17;;;11.30;99.90;;;;;;5011474;28;20034;-62
2020/12/14 11:06:03;;;;;;;1.90;1.20;;;11.40;99.90;;;;;;5010771;28;20038;-60
2020/12/14 11:08:29;;;;;;;1.73;1.10;;;11.40;99.90;;;;;;5010190;28;20117;-59
2020/12/14 11:10:54;;;;;;;2.53;1.50;;;11.40;99.90;;;;;;5012602;28;20038;-60
2020/12/14 11:13:20;;;;;;;3.72;1.50;;;11.40;99.90;;;;;;5012932;28;20034;-60
2020/12/14 11:15:45;;;;;;;1.95;1.08;;;11.50;99.90;;;;;;5010169;28;20043;-59
2020/12/14 11:18:11;;;;;;;3.67;1.15;;;11.60;99.90;;;;;;5010444;28;20148;-60
2020/12/14 11:20:37;;;;;;;4.25;1.23;;;11.70;99.90;;;;;;5008780;28;20130;-60
2020/12/14 11:23:02;;;;;;;2.67;0.93;;;11.70;99.90;;;;;;5009383;28;20061;-61
2020/12/14 11:25:28;;;;;;;1.60;1.23;;;11.60;99.90;;;;;;5011033;28;20042;-60
2020/12/14 11:27:53;;;;;;;1.33;0.93;;;11.70;99.90;;;;;;5010689;28;20030;-60
2020/12/14 11:30:19;;;;;;;3.47;1.60;;;11.70;99.90;;;;;;5009521;28;20038;-60
2020/12/14 11:32:45;;;;;;;2.58;1.10;;;11.70;99.90;;;;;;5010855;28;20030;-59
2020/12/14 11:35:10;;;;;;;2.97;1.70;;;11.60;99.90;;;;;;5010228;28;20041;-61
2020/12/14 11:37:36;;;;;;;4.00;1.20;;;11.60;99.90;;;;;;5009724;28;20092;-59
2020/12/14 11:40:02;;;;;;;4.18;1.23;;;11.50;99.90;;;;;;5009120;28;20431;-60
2020/12/14 11:42:28;;;;;;;3.45;1.50;;;11.40;99.90;;;;;;5012114;28;20100;-59
2020/12/14 11:44:53;;;;;;;2.65;1.40;;;11.20;99.90;;;;;;5010663;28;21207;-63
2020/12/14 11:47:19;;;;;;;4.07;1.27;;;11.20;99.90;;;;;;5008898;28;20574;-59
2020/12/14 11:49:45;;;;;;;2.35;1.70;;;11.10;99.90;;;;;;5009761;28;20125;-59
2020/12/14 11:52:11;;;;;;;2.38;1.17;;;11.10;99.90;;;;;;5009577;28;20167;-60
2020/12/14 11:54:36;;;;;;;5.50;1.80;;;11.10;99.90;;;;;;5015747;28;20041;-63
2020/12/14 11:57:02;;;;;;;4.35;1.70;;;11.10;99.90;;;;;;5013808;28;20030;-59
2020/12/14 11:59:27;;;;;;;3.53;1.38;;;11.20;99.90;;;;;;5015190;28;20038;-61
2020/12/14 12:01:54;;;;;;;1.63;1.23;;;11.20;99.90;;;;;;5014539;28;20637;-62
2020/12/14 12:04:20;;;;;;;3.42;1.60;;;11.30;99.90;;;;;;5013613;28;20037;-60
2020/12/14 12:06:45;;;;;;;6.00;1.40;;;11.40;99.90;;;;;;5014154;28;20407;-60
2020/12/14 12:09:11;;;;;;;5.35;1.40;;;11.50;99.90;;;;;;5013552;28;20034;-59
2020/12/14 12:11:37;;;;;;;3.78;1.13;;;11.50;99.90;;;;;;5014198;28;20195;-61
2020/12/14 12:14:02;;;;;;;6.93;1.73;;;11.60;99.90;;;;;;5015288;28;20041;-59
2020/12/14 12:16:28;;;;;;;2.10;1.30;;;11.60;99.90;;;;;;5011982;28;20041;-61
2020/12/14 12:18:54;;;;;;;4.55;1.33;;;11.60;99.90;;;;;;5012731;28;20061;-59
2020/12/14 12:21:19;;;;;;;4.90;1.13;;;11.60;99.90;;;;;;5013316;28;20038;-63
2020/12/14 12:23:45;;;;;;;9.98;1.20;;;11.60;99.90;;;;;;5013205;28;20494;-59
2020/12/14 12:26:11;;;;;;;2.70;1.27;;;11.50;99.90;;;;;;5010874;28;20617;-59
2020/12/14 12:28:37;;;;;;;4.07;1.33;;;11.50;99.90;;;;;;5015623;28;20030;-59
2020/12/14 12:31:02;;;;;;;2.88;1.40;;;11.50;99.90;;;;;;5013131;28;20036;-59
2020/12/14 12:33:28;;;;;;;4.20;1.20;;;11.60;99.90;;;;;;5012389;28;20034;-59
2020/12/14 12:35:53;;;;;;;6.15;1.60;;;11.60;99.90;;;;;;5011962;28;20030;-62
2020/12/14 12:38:19;;;;;;;3.13;1.30;;;11.70;99.90;;;;;;5008707;28;20126;-60
2020/12/14 12:40:44;;;;;;;2.92;1.17;;;11.70;99.90;;;;;;5010905;28;20049;-61
2020/12/14 12:43:10;;;;;;;2.15;1.02;;;11.70;99.90;;;;;;5007809;28;20037;-63
2020/12/14 12:45:36;;;;;;;5.28;1.45;;;11.80;99.90;;;;;;5008555;28;20033;-58
2020/12/14 12:48:02;;;;;;;4.75;1.15;;;11.80;99.90;;;;;;5011923;28;20121;-60
2020/12/14 12:50:27;;;;;;;3.63;1.42;;;11.80;99.90;;;;;;5012399;28;20137;-59
2020/12/14 12:52:53;;;;;;;2.17;1.10;;;11.80;99.90;;;;;;5016399;28;20111;-62
2020/12/14 12:55:18;;;;;;;2.88;1.60;;;11.70;99.90;;;;;;5012551;28;20042;-59
2020/12/14 12:57:44;;;;;;;4.95;1.30;;;11.70;99.90;;;;;;5009541;28;20080;-59
2020/12/14 13:00:09;;;;;;;2.42;1.15;;;11.70;99.90;;;;;;5013004;28;21242;-63